Terminal Aerodrome Forecast
Issued by NWS Topeka, KS

Home | Current Version | Previous Version | Graphics & Text | Print | Product List | Glossary On
Versions: 1 2 3 4 5 6 7 8 9 10 11 12 13 14 15 16 17 18 19 20
823
FTUS43 KTOP 231728
TAFTOP
TAF
KTOP 231728Z 2318/2418 32011KT P6SM BKN050
     FM232100 32011KT P6SM VCSH BKN050
     FM240200 32007KT P6SM SCT025 BKN035=

USA.gov is the U.S. government's official web portal to all federal, state and local government web resources and services.